sensor_id;sensor_type;location;lat;lon;timestamp;P1;durP1;ratioP1;P2;durP2;ratioP2
36629;SDS011;36256;42.154;23.002;2024-03-02T00:01:34;15.73;;;11.48;;
36629;SDS011;36256;42.154;23.002;2024-03-02T00:04:02;16.85;;;11.55;;
36629;SDS011;36256;42.154;23.002;2024-03-02T00:06:30;21.13;;;11.23;;
36629;SDS011;36256;42.154;23.002;2024-03-02T00:08:58;19.00;;;11.60;;
36629;SDS011;36256;42.154;23.002;2024-03-02T00:11:25;19.77;;;11.40;;
36629;SDS011;36256;42.154;23.002;2024-03-02T00:13:54;17.45;;;11.60;;
36629;SDS011;36256;42.154;23.002;2024-03-02T00:16:21;16.50;;;12.10;;
36629;SDS011;36256;42.154;23.002;2024-03-02T00:18:48;20.98;;;14.75;;
36629;SDS011;36256;42.154;23.002;2024-03-02T00:21:15;18.00;;;11.68;;
36629;SDS011;36256;42.154;23.002;2024-03-02T00:23:44;22.25;;;14.13;;
36629;SDS011;36256;42.154;23.002;2024-03-02T00:26:11;22.92;;;15.82;;
36629;SDS011;36256;42.154;23.002;2024-03-02T00:28:38;19.98;;;13.13;;
36629;SDS011;36256;42.154;23.002;2024-03-02T00:31:10;20.52;;;12.98;;
36629;SDS011;36256;42.154;23.002;2024-03-02T00:33:45;19.55;;;13.55;;
36629;SDS011;36256;42.154;23.002;2024-03-02T00:36:16;20.40;;;13.20;;
36629;SDS011;36256;42.154;23.002;2024-03-02T00:38:52;23.25;;;14.07;;
36629;SDS011;36256;42.154;23.002;2024-03-02T00:41:24;19.60;;;14.40;;
36629;SDS011;36256;42.154;23.002;2024-03-02T00:43:56;21.08;;;13.80;;
36629;SDS011;36256;42.154;23.002;2024-03-02T00:46:36;18.75;;;12.57;;
36629;SDS011;36256;42.154;23.002;2024-03-02T00:51:46;16.25;;;11.77;;
36629;SDS011;36256;42.154;23.002;2024-03-02T00:54:21;16.33;;;12.13;;
36629;SDS011;36256;42.154;23.002;2024-03-02T00:56:51;17.10;;;12.05;;
36629;SDS011;36256;42.154;23.002;2024-03-02T00:59:18;17.23;;;11.85;;
36629;SDS011;36256;42.154;23.002;2024-03-02T01:01:45;19.77;;;12.02;;
36629;SDS011;36256;42.154;23.002;2024-03-02T01:04:12;18.05;;;12.32;;
36629;SDS011;36256;42.154;23.002;2024-03-02T01:06:40;17.88;;;11.50;;
36629;SDS011;36256;42.154;23.002;2024-03-02T01:09:08;17.80;;;11.95;;
36629;SDS011;36256;42.154;23.002;2024-03-02T01:11:35;17.92;;;11.80;;
36629;SDS011;36256;42.154;23.002;2024-03-02T01:14:02;19.77;;;11.60;;
36629;SDS011;36256;42.154;23.002;2024-03-02T01:16:28;19.27;;;12.57;;
36629;SDS011;36256;42.154;23.002;2024-03-02T01:18:55;19.70;;;12.82;;
36629;SDS011;36256;42.154;23.002;2024-03-02T01:21:22;18.95;;;12.60;;
36629;SDS011;36256;42.154;23.002;2024-03-02T01:23:49;19.10;;;12.50;;
36629;SDS011;36256;42.154;23.002;2024-03-02T01:26:15;17.95;;;11.52;;
36629;SDS011;36256;42.154;23.002;2024-03-02T01:28:42;17.40;;;10.50;;
36629;SDS011;36256;42.154;23.002;2024-03-02T01:31:09;16.48;;;9.48;;
36629;SDS011;36256;42.154;23.002;2024-03-02T01:33:35;11.75;;;8.40;;
36629;SDS011;36256;42.154;23.002;2024-03-02T01:36:02;15.55;;;9.48;;
36629;SDS011;36256;42.154;23.002;2024-03-02T01:38:29;12.68;;;9.73;;
36629;SDS011;36256;42.154;23.002;2024-03-02T01:40:56;12.50;;;9.07;;
36629;SDS011;36256;42.154;23.002;2024-03-02T01:45:50;10.25;;;7.32;;
36629;SDS011;36256;42.154;23.002;2024-03-02T01:48:16;11.13;;;8.07;;
36629;SDS011;36256;42.154;23.002;2024-03-02T01:50:43;10.43;;;8.07;;
36629;SDS011;36256;42.154;23.002;2024-03-02T01:53:10;12.52;;;8.23;;
36629;SDS011;36256;42.154;23.002;2024-03-02T01:55:37;11.45;;;8.00;;
36629;SDS011;36256;42.154;23.002;2024-03-02T01:58:04;10.40;;;7.00;;
36629;SDS011;36256;42.154;23.002;2024-03-02T02:00:31;11.00;;;7.60;;
36629;SDS011;36256;42.154;23.002;2024-03-02T02:02:58;14.35;;;9.40;;
36629;SDS011;36256;42.154;23.002;2024-03-02T02:05:25;18.13;;;11.25;;
36629;SDS011;36256;42.154;23.002;2024-03-02T02:07:52;14.27;;;10.60;;
36629;SDS011;36256;42.154;23.002;2024-03-02T02:10:19;16.52;;;10.88;;
36629;SDS011;36256;42.154;23.002;2024-03-02T02:12:45;13.15;;;9.48;;
36629;SDS011;36256;42.154;23.002;2024-03-02T02:15:25;21.55;;;12.90;;
36629;SDS011;36256;42.154;23.002;2024-03-02T02:17:54;17.40;;;11.88;;
36629;SDS011;36256;42.154;23.002;2024-03-02T02:20:22;17.30;;;10.57;;
36629;SDS011;36256;42.154;23.002;2024-03-02T02:23:07;15.40;;;10.15;;
36629;SDS011;36256;42.154;23.002;2024-03-02T02:25:37;13.10;;;9.13;;
36629;SDS011;36256;42.154;23.002;2024-03-02T02:28:04;12.77;;;9.02;;
36629;SDS011;36256;42.154;23.002;2024-03-02T02:30:31;13.48;;;8.93;;
36629;SDS011;36256;42.154;23.002;2024-03-02T02:32:59;14.30;;;9.18;;
36629;SDS011;36256;42.154;23.002;2024-03-02T02:37:53;13.02;;;8.68;;
36629;SDS011;36256;42.154;23.002;2024-03-02T02:40:22;10.93;;;8.18;;
36629;SDS011;36256;42.154;23.002;2024-03-02T02:42:49;13.10;;;9.90;;
36629;SDS011;36256;42.154;23.002;2024-03-02T02:45:16;13.98;;;9.60;;
36629;SDS011;36256;42.154;23.002;2024-03-02T02:47:43;15.05;;;11.15;;
36629;SDS011;36256;42.154;23.002;2024-03-02T02:50:11;16.85;;;11.95;;
36629;SDS011;36256;42.154;23.002;2024-03-02T02:52:39;22.58;;;13.20;;
36629;SDS011;36256;42.154;23.002;2024-03-02T02:55:08;20.77;;;13.13;;
36629;SDS011;36256;42.154;23.002;2024-03-02T02:57:37;21.38;;;13.95;;
36629;SDS011;36256;42.154;23.002;2024-03-02T03:00:06;23.85;;;15.30;;
36629;SDS011;36256;42.154;23.002;2024-03-02T03:02:43;26.65;;;17.20;;
36629;SDS011;36256;42.154;23.002;2024-03-02T03:05:11;27.52;;;16.98;;
36629;SDS011;36256;42.154;23.002;2024-03-02T03:07:40;26.17;;;16.90;;
36629;SDS011;36256;42.154;23.002;2024-03-02T03:10:07;27.58;;;17.23;;
36629;SDS011;36256;42.154;23.002;2024-03-02T03:12:35;25.70;;;17.10;;
36629;SDS011;36256;42.154;23.002;2024-03-02T03:15:03;30.48;;;17.13;;
36629;SDS011;36256;42.154;23.002;2024-03-02T03:17:33;28.70;;;18.38;;
36629;SDS011;36256;42.154;23.002;2024-03-02T03:20:01;31.17;;;19.38;;
36629;SDS011;36256;42.154;23.002;2024-03-02T03:22:30;30.63;;;19.45;;
36629;SDS011;36256;42.154;23.002;2024-03-02T03:24:58;32.92;;;19.92;;
36629;SDS011;36256;42.154;23.002;2024-03-02T03:27:25;33.53;;;19.73;;
36629;SDS011;36256;42.154;23.002;2024-03-02T03:29:52;30.48;;;17.92;;
36629;SDS011;36256;42.154;23.002;2024-03-02T03:32:20;31.17;;;17.23;;
36629;SDS011;36256;42.154;23.002;2024-03-02T03:34:48;29.17;;;18.52;;
36629;SDS011;36256;42.154;23.002;2024-03-02T03:37:15;26.40;;;17.17;;
36629;SDS011;36256;42.154;23.002;2024-03-02T03:39:42;27.13;;;16.40;;
36629;SDS011;36256;42.154;23.002;2024-03-02T03:42:08;32.38;;;18.33;;
36629;SDS011;36256;42.154;23.002;2024-03-02T03:44:35;30.02;;;18.77;;
36629;SDS011;36256;42.154;23.002;2024-03-02T03:47:02;27.55;;;17.50;;
36629;SDS011;36256;42.154;23.002;2024-03-02T03:49:29;31.08;;;17.77;;
36629;SDS011;36256;42.154;23.002;2024-03-02T03:51:55;26.17;;;16.80;;
36629;SDS011;36256;42.154;23.002;2024-03-02T03:54:22;19.30;;;14.10;;
36629;SDS011;36256;42.154;23.002;2024-03-02T03:56:49;21.67;;;13.38;;
36629;SDS011;36256;42.154;23.002;2024-03-02T03:59:15;20.38;;;12.05;;
36629;SDS011;36256;42.154;23.002;2024-03-02T04:01:42;18.42;;;12.60;;
36629;SDS011;36256;42.154;23.002;2024-03-02T04:04:09;19.50;;;13.60;;
36629;SDS011;36256;42.154;23.002;2024-03-02T04:06:35;18.40;;;11.33;;
36629;SDS011;36256;42.154;23.002;2024-03-02T04:09:02;16.33;;;11.55;;
36629;SDS011;36256;42.154;23.002;2024-03-02T04:11:30;14.88;;;11.50;;
36629;SDS011;36256;42.154;23.002;2024-03-02T04:13:57;15.60;;;10.50;;
36629;SDS011;36256;42.154;23.002;2024-03-02T04:16:24;13.73;;;10.13;;
36629;SDS011;36256;42.154;23.002;2024-03-02T04:18:51;12.55;;;9.93;;
36629;SDS011;36256;42.154;23.002;2024-03-02T04:21:18;14.18;;;10.40;;
36629;SDS011;36256;42.154;23.002;2024-03-02T04:23:44;15.60;;;10.95;;
36629;SDS011;36256;42.154;23.002;2024-03-02T04:26:11;13.52;;;10.38;;
36629;SDS011;36256;42.154;23.002;2024-03-02T04:28:38;14.85;;;10.10;;
36629;SDS011;36256;42.154;23.002;2024-03-02T04:31:04;13.13;;;9.68;;
36629;SDS011;36256;42.154;23.002;2024-03-02T04:33:31;87.95;;;47.70;;
36629;SDS011;36256;42.154;23.002;2024-03-02T04:35:58;59.47;;;44.33;;
36629;SDS011;36256;42.154;23.002;2024-03-02T04:38:25;48.13;;;34.08;;
36629;SDS011;36256;42.154;23.002;2024-03-02T04:40:52;30.77;;;20.15;;
36629;SDS011;36256;42.154;23.002;2024-03-02T04:43:18;30.60;;;19.50;;
36629;SDS011;36256;42.154;23.002;2024-03-02T04:45:45;31.58;;;20.05;;
36629;SDS011;36256;42.154;23.002;2024-03-02T04:48:12;34.05;;;23.63;;
36629;SDS011;36256;42.154;23.002;2024-03-02T04:50:40;38.50;;;25.38;;
36629;SDS011;36256;42.154;23.002;2024-03-02T04:53:07;33.20;;;24.10;;
36629;SDS011;36256;42.154;23.002;2024-03-02T04:55:34;30.65;;;24.00;;
36629;SDS011;36256;42.154;23.002;2024-03-02T04:58:01;34.47;;;23.15;;
36629;SDS011;36256;42.154;23.002;2024-03-02T05:00:27;34.30;;;23.35;;
36629;SDS011;36256;42.154;23.002;2024-03-02T05:02:54;28.58;;;19.10;;
36629;SDS011;36256;42.154;23.002;2024-03-02T05:05:21;29.23;;;19.10;;
36629;SDS011;36256;42.154;23.002;2024-03-02T05:07:47;29.08;;;20.08;;
36629;SDS011;36256;42.154;23.002;2024-03-02T05:10:14;35.42;;;22.73;;
36629;SDS011;36256;42.154;23.002;2024-03-02T05:12:41;36.88;;;23.05;;
36629;SDS011;36256;42.154;23.002;2024-03-02T05:15:12;36.08;;;23.05;;
36629;SDS011;36256;42.154;23.002;2024-03-02T05:17:40;40.67;;;27.13;;
36629;SDS011;36256;42.154;23.002;2024-03-02T05:20:10;42.83;;;26.48;;
36629;SDS011;36256;42.154;23.002;2024-03-02T05:22:37;38.92;;;23.30;;
36629;SDS011;36256;42.154;23.002;2024-03-02T05:25:04;39.45;;;25.25;;
36629;SDS011;36256;42.154;23.002;2024-03-02T05:27:32;40.03;;;24.73;;
36629;SDS011;36256;42.154;23.002;2024-03-02T05:30:00;37.63;;;21.90;;
36629;SDS011;36256;42.154;23.002;2024-03-02T05:32:26;36.38;;;23.13;;
36629;SDS011;36256;42.154;23.002;2024-03-02T05:34:53;33.97;;;21.15;;
36629;SDS011;36256;42.154;23.002;2024-03-02T05:37:21;34.05;;;21.25;;
36629;SDS011;36256;42.154;23.002;2024-03-02T05:39:48;33.53;;;21.13;;
36629;SDS011;36256;42.154;23.002;2024-03-02T05:42:14;32.75;;;20.45;;
36629;SDS011;36256;42.154;23.002;2024-03-02T05:44:43;33.22;;;20.45;;
36629;SDS011;36256;42.154;23.002;2024-03-02T05:47:10;40.03;;;21.58;;
36629;SDS011;36256;42.154;23.002;2024-03-02T05:49:36;34.08;;;20.77;;
36629;SDS011;36256;42.154;23.002;2024-03-02T05:52:03;35.08;;;20.55;;
36629;SDS011;36256;42.154;23.002;2024-03-02T05:54:30;32.95;;;21.02;;
36629;SDS011;36256;42.154;23.002;2024-03-02T05:56:57;33.53;;;21.13;;
36629;SDS011;36256;42.154;23.002;2024-03-02T05:59:42;32.65;;;21.67;;
36629;SDS011;36256;42.154;23.002;2024-03-02T06:02:10;34.67;;;21.35;;
36629;SDS011;36256;42.154;23.002;2024-03-02T06:04:36;35.05;;;21.40;;
36629;SDS011;36256;42.154;23.002;2024-03-02T06:07:03;36.33;;;22.35;;
36629;SDS011;36256;42.154;23.002;2024-03-02T06:09:29;37.00;;;23.15;;
36629;SDS011;36256;42.154;23.002;2024-03-02T06:11:56;36.22;;;22.75;;
36629;SDS011;36256;42.154;23.002;2024-03-02T06:14:23;37.03;;;23.75;;
36629;SDS011;36256;42.154;23.002;2024-03-02T06:16:50;58.45;;;35.92;;
36629;SDS011;36256;42.154;23.002;2024-03-02T06:19:16;47.55;;;29.60;;
36629;SDS011;36256;42.154;23.002;2024-03-02T06:21:44;41.40;;;25.35;;
36629;SDS011;36256;42.154;23.002;2024-03-02T06:24:11;36.80;;;23.20;;
36629;SDS011;36256;42.154;23.002;2024-03-02T06:26:37;38.47;;;23.60;;
36629;SDS011;36256;42.154;23.002;2024-03-02T06:29:06;37.15;;;21.80;;
36629;SDS011;36256;42.154;23.002;2024-03-02T06:31:32;35.40;;;22.13;;
36629;SDS011;36256;42.154;23.002;2024-03-02T06:33:59;38.10;;;22.20;;
36629;SDS011;36256;42.154;23.002;2024-03-02T06:36:25;55.97;;;40.85;;
36629;SDS011;36256;42.154;23.002;2024-03-02T06:38:52;43.20;;;26.45;;
36629;SDS011;36256;42.154;23.002;2024-03-02T06:41:19;37.87;;;23.57;;
36629;SDS011;36256;42.154;23.002;2024-03-02T06:43:46;36.53;;;22.75;;
36629;SDS011;36256;42.154;23.002;2024-03-02T06:46:12;36.15;;;22.60;;
36629;SDS011;36256;42.154;23.002;2024-03-02T06:48:41;33.97;;;21.23;;
36629;SDS011;36256;42.154;23.002;2024-03-02T06:51:08;40.58;;;21.65;;
36629;SDS011;36256;42.154;23.002;2024-03-02T06:53:34;39.88;;;23.73;;
36629;SDS011;36256;42.154;23.002;2024-03-02T06:56:01;39.90;;;24.77;;
36629;SDS011;36256;42.154;23.002;2024-03-02T06:58:28;43.50;;;25.58;;
36629;SDS011;36256;42.154;23.002;2024-03-02T07:00:55;44.78;;;26.67;;
36629;SDS011;36256;42.154;23.002;2024-03-02T07:03:22;38.63;;;24.15;;
36629;SDS011;36256;42.154;23.002;2024-03-02T07:05:49;40.97;;;25.30;;
36629;SDS011;36256;42.154;23.002;2024-03-02T07:08:15;51.58;;;28.92;;
36629;SDS011;36256;42.154;23.002;2024-03-02T07:10:42;48.17;;;28.48;;
36629;SDS011;36256;42.154;23.002;2024-03-02T07:13:09;38.83;;;23.58;;
36629;SDS011;36256;42.154;23.002;2024-03-02T07:15:36;41.45;;;23.33;;
36629;SDS011;36256;42.154;23.002;2024-03-02T07:18:03;36.05;;;22.38;;
36629;SDS011;36256;42.154;23.002;2024-03-02T07:20:30;38.15;;;22.73;;
36629;SDS011;36256;42.154;23.002;2024-03-02T07:22:57;39.95;;;22.13;;
36629;SDS011;36256;42.154;23.002;2024-03-02T07:25:24;38.13;;;23.77;;
36629;SDS011;36256;42.154;23.002;2024-03-02T07:27:54;37.92;;;23.10;;
36629;SDS011;36256;42.154;23.002;2024-03-02T07:30:21;40.20;;;25.17;;
36629;SDS011;36256;42.154;23.002;2024-03-02T07:32:49;40.35;;;24.73;;
36629;SDS011;36256;42.154;23.002;2024-03-02T07:35:16;38.72;;;24.33;;
36629;SDS011;36256;42.154;23.002;2024-03-02T07:37:44;35.80;;;22.30;;
36629;SDS011;36256;42.154;23.002;2024-03-02T07:40:11;36.50;;;23.45;;
36629;SDS011;36256;42.154;23.002;2024-03-02T07:42:41;39.20;;;24.13;;
36629;SDS011;36256;42.154;23.002;2024-03-02T07:45:08;40.63;;;24.63;;
36629;SDS011;36256;42.154;23.002;2024-03-02T07:47:35;36.10;;;22.20;;
36629;SDS011;36256;42.154;23.002;2024-03-02T07:50:02;34.92;;;21.90;;
36629;SDS011;36256;42.154;23.002;2024-03-02T07:52:29;34.83;;;22.15;;
36629;SDS011;36256;42.154;23.002;2024-03-02T07:54:56;38.05;;;23.55;;
36629;SDS011;36256;42.154;23.002;2024-03-02T07:57:23;28.65;;;18.17;;
36629;SDS011;36256;42.154;23.002;2024-03-02T07:59:50;27.02;;;17.35;;
36629;SDS011;36256;42.154;23.002;2024-03-02T08:02:16;29.63;;;18.92;;
36629;SDS011;36256;42.154;23.002;2024-03-02T08:04:44;30.45;;;19.65;;
36629;SDS011;36256;42.154;23.002;2024-03-02T08:07:12;29.85;;;20.75;;
36629;SDS011;36256;42.154;23.002;2024-03-02T08:09:39;28.90;;;19.65;;
36629;SDS011;36256;42.154;23.002;2024-03-02T08:12:06;30.77;;;19.83;;
36629;SDS011;36256;42.154;23.002;2024-03-02T08:14:35;28.42;;;19.70;;
36629;SDS011;36256;42.154;23.002;2024-03-02T08:17:02;29.13;;;20.05;;
36629;SDS011;36256;42.154;23.002;2024-03-02T08:19:29;30.85;;;20.30;;
36629;SDS011;36256;42.154;23.002;2024-03-02T08:21:55;30.17;;;19.55;;
36629;SDS011;36256;42.154;23.002;2024-03-02T08:24:22;30.83;;;19.60;;
36629;SDS011;36256;42.154;23.002;2024-03-02T08:26:49;24.05;;;17.38;;
36629;SDS011;36256;42.154;23.002;2024-03-02T08:29:16;26.13;;;19.38;;
36629;SDS011;36256;42.154;23.002;2024-03-02T08:31:43;27.10;;;18.65;;
36629;SDS011;36256;42.154;23.002;2024-03-02T08:34:10;32.42;;;20.92;;
36629;SDS011;36256;42.154;23.002;2024-03-02T08:36:36;32.33;;;21.27;;
36629;SDS011;36256;42.154;23.002;2024-03-02T08:39:04;32.75;;;20.70;;
36629;SDS011;36256;42.154;23.002;2024-03-02T08:41:33;33.65;;;21.42;;
36629;SDS011;36256;42.154;23.002;2024-03-02T08:44:00;32.17;;;22.00;;
36629;SDS011;36256;42.154;23.002;2024-03-02T08:46:27;30.20;;;19.52;;
36629;SDS011;36256;42.154;23.002;2024-03-02T08:48:54;29.33;;;20.02;;
36629;SDS011;36256;42.154;23.002;2024-03-02T08:51:21;30.67;;;21.20;;
36629;SDS011;36256;42.154;23.002;2024-03-02T08:53:47;27.80;;;18.45;;
36629;SDS011;36256;42.154;23.002;2024-03-02T08:56:14;29.88;;;19.60;;
36629;SDS011;36256;42.154;23.002;2024-03-02T08:58:42;34.33;;;21.50;;
36629;SDS011;36256;42.154;23.002;2024-03-02T09:01:10;31.63;;;20.30;;
36629;SDS011;36256;42.154;23.002;2024-03-02T09:03:37;31.83;;;19.60;;
36629;SDS011;36256;42.154;23.002;2024-03-02T09:06:04;25.45;;;18.30;;
36629;SDS011;36256;42.154;23.002;2024-03-02T09:08:31;26.55;;;17.85;;
36629;SDS011;36256;42.154;23.002;2024-03-02T09:10:57;26.38;;;18.73;;
36629;SDS011;36256;42.154;23.002;2024-03-02T09:13:25;28.50;;;18.15;;
36629;SDS011;36256;42.154;23.002;2024-03-02T09:15:51;29.15;;;18.63;;
36629;SDS011;36256;42.154;23.002;2024-03-02T09:18:18;26.73;;;18.80;;
36629;SDS011;36256;42.154;23.002;2024-03-02T09:20:45;25.85;;;17.42;;
36629;SDS011;36256;42.154;23.002;2024-03-02T09:23:12;22.52;;;15.98;;
36629;SDS011;36256;42.154;23.002;2024-03-02T09:25:39;22.67;;;16.40;;
36629;SDS011;36256;42.154;23.002;2024-03-02T09:28:05;23.15;;;15.55;;
36629;SDS011;36256;42.154;23.002;2024-03-02T09:30:33;25.92;;;16.13;;
36629;SDS011;36256;42.154;23.002;2024-03-02T09:33:00;26.63;;;16.55;;
36629;SDS011;36256;42.154;23.002;2024-03-02T09:35:29;20.85;;;15.18;;
36629;SDS011;36256;42.154;23.002;2024-03-02T09:37:56;23.92;;;15.77;;
36629;SDS011;36256;42.154;23.002;2024-03-02T09:40:23;23.13;;;14.88;;
36629;SDS011;36256;42.154;23.002;2024-03-02T09:42:50;23.40;;;16.27;;
36629;SDS011;36256;42.154;23.002;2024-03-02T09:45:23;26.58;;;17.52;;
36629;SDS011;36256;42.154;23.002;2024-03-02T09:47:51;21.77;;;15.52;;
36629;SDS011;36256;42.154;23.002;2024-03-02T09:50:17;23.23;;;15.55;;
36629;SDS011;36256;42.154;23.002;2024-03-02T09:52:47;22.02;;;15.85;;
36629;SDS011;36256;42.154;23.002;2024-03-02T09:55:15;22.80;;;16.08;;
36629;SDS011;36256;42.154;23.002;2024-03-02T09:57:42;20.13;;;14.35;;
36629;SDS011;36256;42.154;23.002;2024-03-02T10:00:09;24.65;;;16.80;;
36629;SDS011;36256;42.154;23.002;2024-03-02T10:02:41;24.45;;;16.67;;
36629;SDS011;36256;42.154;23.002;2024-03-02T10:07:35;24.92;;;16.38;;
36629;SDS011;36256;42.154;23.002;2024-03-02T10:10:12;26.88;;;18.50;;
36629;SDS011;36256;42.154;23.002;2024-03-02T10:12:39;26.25;;;16.02;;
36629;SDS011;36256;42.154;23.002;2024-03-02T10:15:06;25.98;;;18.00;;
36629;SDS011;36256;42.154;23.002;2024-03-02T10:17:34;24.45;;;16.38;;
36629;SDS011;36256;42.154;23.002;2024-03-02T10:20:21;22.73;;;15.80;;
36629;SDS011;36256;42.154;23.002;2024-03-02T10:22:49;21.95;;;15.13;;
36629;SDS011;36256;42.154;23.002;2024-03-02T10:25:32;18.98;;;13.63;;
36629;SDS011;36256;42.154;23.002;2024-03-02T10:28:02;20.50;;;13.27;;
36629;SDS011;36256;42.154;23.002;2024-03-02T10:30:35;16.08;;;12.07;;
36629;SDS011;36256;42.154;23.002;2024-03-02T10:33:02;18.02;;;12.68;;
36629;SDS011;36256;42.154;23.002;2024-03-02T10:35:32;18.15;;;12.77;;
36629;SDS011;36256;42.154;23.002;2024-03-02T10:40:26;15.68;;;10.80;;
36629;SDS011;36256;42.154;23.002;2024-03-02T10:42:53;18.15;;;11.23;;
36629;SDS011;36256;42.154;23.002;2024-03-02T10:45:21;16.20;;;10.88;;
36629;SDS011;36256;42.154;23.002;2024-03-02T10:47:51;13.98;;;10.32;;
36629;SDS011;36256;42.154;23.002;2024-03-02T10:50:18;15.00;;;11.38;;
36629;SDS011;36256;42.154;23.002;2024-03-02T10:52:45;12.48;;;8.90;;
36629;SDS011;36256;42.154;23.002;2024-03-02T10:55:11;12.02;;;8.57;;
36629;SDS011;36256;42.154;23.002;2024-03-02T11:00:12;12.13;;;9.10;;
36629;SDS011;36256;42.154;23.002;2024-03-02T11:02:46;12.80;;;8.00;;
36629;SDS011;36256;42.154;23.002;2024-03-02T11:05:22;9.85;;;7.95;;
36629;SDS011;36256;42.154;23.002;2024-03-02T11:07:56;11.68;;;8.02;;
36629;SDS011;36256;42.154;23.002;2024-03-02T11:13:14;10.80;;;7.05;;
36629;SDS011;36256;42.154;23.002;2024-03-02T11:15:42;10.65;;;7.70;;
36629;SDS011;36256;42.154;23.002;2024-03-02T11:18:11;10.93;;;7.90;;
36629;SDS011;36256;42.154;23.002;2024-03-02T11:20:39;11.52;;;8.30;;
36629;SDS011;36256;42.154;23.002;2024-03-02T11:23:07;9.07;;;7.43;;
36629;SDS011;36256;42.154;23.002;2024-03-02T11:25:35;10.95;;;7.88;;
36629;SDS011;36256;42.154;23.002;2024-03-02T11:28:03;12.00;;;8.27;;
36629;SDS011;36256;42.154;23.002;2024-03-02T11:33:05;11.45;;;8.52;;
36629;SDS011;36256;42.154;23.002;2024-03-02T11:35:40;11.60;;;7.80;;
36629;SDS011;36256;42.154;23.002;2024-03-02T11:40:42;11.95;;;8.27;;
36629;SDS011;36256;42.154;23.002;2024-03-02T11:43:09;11.75;;;8.38;;
36629;SDS011;36256;42.154;23.002;2024-03-02T11:45:37;11.25;;;7.60;;
36629;SDS011;36256;42.154;23.002;2024-03-02T11:48:08;10.48;;;8.23;;
36629;SDS011;36256;42.154;23.002;2024-03-02T11:50:45;11.20;;;8.10;;
36629;SDS011;36256;42.154;23.002;2024-03-02T11:53:13;12.38;;;7.80;;
36629;SDS011;36256;42.154;23.002;2024-03-02T11:55:40;11.02;;;8.02;;
36629;SDS011;36256;42.154;23.002;2024-03-02T11:58:10;11.20;;;8.07;;
36629;SDS011;36256;42.154;23.002;2024-03-02T12:00:36;15.10;;;8.38;;
36629;SDS011;36256;42.154;23.002;2024-03-02T12:03:07;9.77;;;7.00;;
36629;SDS011;36256;42.154;23.002;2024-03-02T12:05:35;10.70;;;7.40;;
36629;SDS011;36256;42.154;23.002;2024-03-02T12:08:03;8.38;;;6.38;;
36629;SDS011;36256;42.154;23.002;2024-03-02T12:10:33;10.63;;;7.60;;
36629;SDS011;36256;42.154;23.002;2024-03-02T12:13:01;8.90;;;5.95;;
36629;SDS011;36256;42.154;23.002;2024-03-02T12:15:37;6.53;;;5.07;;
36629;SDS011;36256;42.154;23.002;2024-03-02T12:18:05;7.78;;;6.00;;
36629;SDS011;36256;42.154;23.002;2024-03-02T12:20:33;13.75;;;8.93;;
36629;SDS011;36256;42.154;23.002;2024-03-02T12:23:01;8.57;;;6.50;;
36629;SDS011;36256;42.154;23.002;2024-03-02T12:25:30;10.70;;;7.85;;
36629;SDS011;36256;42.154;23.002;2024-03-02T12:27:59;15.70;;;11.18;;
36629;SDS011;36256;42.154;23.002;2024-03-02T12:30:31;14.48;;;9.88;;
36629;SDS011;36256;42.154;23.002;2024-03-02T12:33:02;13.60;;;9.45;;
36629;SDS011;36256;42.154;23.002;2024-03-02T12:35:29;10.32;;;7.78;;
36629;SDS011;36256;42.154;23.002;2024-03-02T12:37:56;8.88;;;6.95;;
36629;SDS011;36256;42.154;23.002;2024-03-02T12:40:23;8.48;;;6.57;;
36629;SDS011;36256;42.154;23.002;2024-03-02T12:42:50;8.35;;;6.38;;
36629;SDS011;36256;42.154;23.002;2024-03-02T12:45:18;15.55;;;10.10;;
36629;SDS011;36256;42.154;23.002;2024-03-02T12:47:51;9.05;;;6.93;;
36629;SDS011;36256;42.154;23.002;2024-03-02T12:50:18;8.55;;;6.38;;
36629;SDS011;36256;42.154;23.002;2024-03-02T12:52:52;7.75;;;6.18;;
36629;SDS011;36256;42.154;23.002;2024-03-02T12:55:20;10.80;;;6.30;;
36629;SDS011;36256;42.154;23.002;2024-03-02T12:57:52;7.50;;;5.82;;
36629;SDS011;36256;42.154;23.002;2024-03-02T13:00:20;9.52;;;6.43;;
36629;SDS011;36256;42.154;23.002;2024-03-02T13:02:49;10.02;;;7.43;;
36629;SDS011;36256;42.154;23.002;2024-03-02T13:05:18;9.60;;;7.28;;
36629;SDS011;36256;42.154;23.002;2024-03-02T13:07:46;10.35;;;6.68;;
36629;SDS011;36256;42.154;23.002;2024-03-02T13:10:14;8.10;;;5.80;;
36629;SDS011;36256;42.154;23.002;2024-03-02T13:12:41;9.88;;;5.70;;
36629;SDS011;36256;42.154;23.002;2024-03-02T13:15:08;8.73;;;5.80;;
36629;SDS011;36256;42.154;23.002;2024-03-02T13:17:35;8.30;;;5.80;;
36629;SDS011;36256;42.154;23.002;2024-03-02T13:20:04;11.68;;;6.85;;
36629;SDS011;36256;42.154;23.002;2024-03-02T13:22:37;8.85;;;6.65;;
36629;SDS011;36256;42.154;23.002;2024-03-02T13:25:04;10.93;;;7.53;;
36629;SDS011;36256;42.154;23.002;2024-03-02T13:27:32;7.55;;;6.07;;
36629;SDS011;36256;42.154;23.002;2024-03-02T13:29:59;12.57;;;8.38;;
36629;SDS011;36256;42.154;23.002;2024-03-02T13:32:26;9.55;;;6.70;;
36629;SDS011;36256;42.154;23.002;2024-03-02T13:34:53;13.85;;;5.90;;
36629;SDS011;36256;42.154;23.002;2024-03-02T13:37:20;8.38;;;6.28;;
36629;SDS011;36256;42.154;23.002;2024-03-02T13:39:48;10.35;;;7.35;;
36629;SDS011;36256;42.154;23.002;2024-03-02T13:42:15;7.80;;;6.30;;
36629;SDS011;36256;42.154;23.002;2024-03-02T13:44:45;10.13;;;7.78;;
36629;SDS011;36256;42.154;23.002;2024-03-02T13:47:13;10.93;;;7.70;;
36629;SDS011;36256;42.154;23.002;2024-03-02T13:49:40;10.55;;;6.93;;
36629;SDS011;36256;42.154;23.002;2024-03-02T13:52:11;8.23;;;6.38;;
36629;SDS011;36256;42.154;23.002;2024-03-02T13:54:43;8.05;;;6.32;;
36629;SDS011;36256;42.154;23.002;2024-03-02T13:57:12;10.10;;;6.72;;
36629;SDS011;36256;42.154;23.002;2024-03-02T13:59:39;8.90;;;6.68;;
36629;SDS011;36256;42.154;23.002;2024-03-02T14:02:07;7.68;;;6.05;;
36629;SDS011;36256;42.154;23.002;2024-03-02T14:04:35;10.63;;;6.18;;
36629;SDS011;36256;42.154;23.002;2024-03-02T14:07:03;8.82;;;6.57;;
36629;SDS011;36256;42.154;23.002;2024-03-02T14:11:57;8.05;;;6.43;;
36629;SDS011;36256;42.154;23.002;2024-03-02T14:14:23;9.50;;;7.00;;
36629;SDS011;36256;42.154;23.002;2024-03-02T14:16:50;9.27;;;6.47;;
36629;SDS011;36256;42.154;23.002;2024-03-02T14:19:18;10.85;;;7.00;;
36629;SDS011;36256;42.154;23.002;2024-03-02T14:21:45;11.55;;;6.15;;
36629;SDS011;36256;42.154;23.002;2024-03-02T14:24:12;9.38;;;5.82;;
36629;SDS011;36256;42.154;23.002;2024-03-02T14:26:39;8.40;;;6.63;;
36629;SDS011;36256;42.154;23.002;2024-03-02T14:29:07;7.43;;;5.53;;
36629;SDS011;36256;42.154;23.002;2024-03-02T14:31:33;6.32;;;5.28;;
36629;SDS011;36256;42.154;23.002;2024-03-02T14:34:00;8.25;;;5.70;;
36629;SDS011;36256;42.154;23.002;2024-03-02T14:36:27;7.82;;;5.90;;
36629;SDS011;36256;42.154;23.002;2024-03-02T14:38:54;7.93;;;5.85;;
36629;SDS011;36256;42.154;23.002;2024-03-02T14:41:22;8.00;;;6.15;;
36629;SDS011;36256;42.154;23.002;2024-03-02T14:43:51;9.68;;;6.10;;